Terminal Aerodrome Forecast
Issued by NWS

Home | Current Version | Previous Version | Text Only | Print | Product List | Glossary On
Versions: 1 2 3 4 5 6 7 8 9 10 11 12 13
000
FTUS44 KEPZ 202320
TAFDMN
TAF
KDMN 202320Z 2100/2124 06006KT P6SM SCT030 BKN070
     FM210600 06005KT P6SM SCT020 BKN050
      TEMPO 2110/2114 2SM BR BKN010
     FM211500 20006KT P6SM BKN060=

USA.gov is the U.S. government's official web portal to all federal, state and local government web resources and services.